createdAt,value
2023-04-18T00:01:51.750Z,8.01
2023-04-18T00:03:53.618Z,8.01
2023-04-18T00:05:55.845Z,8.00
2023-04-18T00:07:57.299Z,8.01
2023-04-18T00:09:58.754Z,7.99
2023-04-18T00:12:01.584Z,8.00
2023-04-18T00:14:03.392Z,7.99
2023-04-18T00:16:05.991Z,7.96
2023-04-18T00:18:08.457Z,7.97
2023-04-18T00:20:12.992Z,7.96
2023-04-18T00:22:16.452Z,7.94
2023-04-18T00:24:17.949Z,7.93
2023-04-18T00:26:19.644Z,7.95
2023-04-18T00:28:21.145Z,7.92
2023-04-18T00:30:22.623Z,7.91
2023-04-18T00:32:24.284Z,7.91
2023-04-18T00:34:25.778Z,7.89
2023-04-18T00:36:27.818Z,7.86
2023-04-18T00:38:29.298Z,7.82
2023-04-18T00:40:30.804Z,7.79
2023-04-18T00:42:32.787Z,7.76
2023-04-18T00:44:34.270Z,7.73
2023-04-18T00:46:35.783Z,7.70
2023-04-18T00:48:39.163Z,7.68
2023-04-18T00:50:41.676Z,7.65
2023-04-18T00:52:44.652Z,7.65
2023-04-18T00:54:47.330Z,7.62
2023-04-18T00:56:48.883Z,7.61
2023-04-18T00:58:50.456Z,7.59
2023-04-18T01:00:52.190Z,7.59
2023-04-18T01:02:55.753Z,7.59
2023-04-18T01:04:58.633Z,7.57
2023-04-18T01:07:01.482Z,7.60
2023-04-18T01:09:05.222Z,7.58
2023-04-18T01:11:06.741Z,7.59
2023-04-18T01:13:15.931Z,7.61
2023-04-18T01:15:17.423Z,7.62
2023-04-18T01:17:19.251Z,7.59
2023-04-18T01:19:20.757Z,7.59
2023-04-18T01:21:22.562Z,7.59
2023-04-18T01:23:24.071Z,7.59
2023-04-18T01:25:25.924Z,7.61
2023-04-18T01:27:27.408Z,7.61
2023-04-18T01:29:29.126Z,7.61
2023-04-18T01:31:30.820Z,7.60
2023-04-18T01:33:32.292Z,7.60
2023-04-18T01:35:34.248Z,7.61
2023-04-18T01:37:35.890Z,7.60
2023-04-18T01:39:37.375Z,7.60
2023-04-18T01:41:39.205Z,7.59
2023-04-18T01:43:40.659Z,7.60
2023-04-18T01:45:42.158Z,7.61
2023-04-18T01:47:44.113Z,7.60
2023-04-18T01:49:48.165Z,7.56
2023-04-18T01:51:49.660Z,7.56
2023-04-18T01:53:51.145Z,7.56
2023-04-18T01:55:52.715Z,7.57
2023-04-18T01:57:54.181Z,7.54
2023-04-18T01:59:55.734Z,7.55
2023-04-18T02:01:57.438Z,7.54
2023-04-18T02:03:59.051Z,7.52
2023-04-18T02:06:01.910Z,7.51
2023-04-18T02:08:03.509Z,7.47
2023-04-18T02:10:05.607Z,7.45
2023-04-18T02:12:07.398Z,7.44
2023-04-18T02:14:09.001Z,7.43
2023-04-18T02:16:13.985Z,7.41
2023-04-18T02:18:17.355Z,7.38
2023-04-18T02:20:18.868Z,7.38
2023-04-18T02:22:20.418Z,7.37
2023-04-18T02:24:21.972Z,7.37
2023-04-18T02:26:23.773Z,7.37
2023-04-18T02:28:25.228Z,7.36
2023-04-18T02:30:27.133Z,7.37
2023-04-18T02:32:28.637Z,7.36
2023-04-18T02:34:30.378Z,7.38
2023-04-18T02:36:31.967Z,7.34
2023-04-18T02:38:33.438Z,7.33
2023-04-18T02:40:34.913Z,7.32
2023-04-18T02:42:36.485Z,7.33
2023-04-18T02:44:37.932Z,7.33
2023-04-18T02:46:39.418Z,7.34
2023-04-18T02:48:41.055Z,7.32
2023-04-18T02:50:42.505Z,7.29
2023-04-18T02:52:44.120Z,7.29
2023-04-18T02:54:45.703Z,7.27
2023-04-18T02:56:47.245Z,7.21
2023-04-18T02:58:49.136Z,7.19
2023-04-18T03:00:53.675Z,7.17
2023-04-18T03:02:55.490Z,7.13
2023-04-18T03:04:57.074Z,7.12
2023-04-18T03:06:59.389Z,7.10
2023-04-18T03:09:00.867Z,7.10
2023-04-18T03:11:02.336Z,7.07
2023-04-18T03:13:04.134Z,7.06
2023-04-18T03:15:06.353Z,7.05
2023-04-18T03:17:07.860Z,7.04
2023-04-18T03:19:09.633Z,7.02
2023-04-18T03:21:11.766Z,7.01
2023-04-18T03:23:13.238Z,7.02
2023-04-18T03:25:14.814Z,7.02
2023-04-18T03:27:16.368Z,6.99
2023-04-18T03:29:17.876Z,6.99
2023-04-18T03:31:19.447Z,6.99
2023-04-18T03:33:20.921Z,6.99
2023-04-18T03:35:22.422Z,6.97
2023-04-18T03:37:23.865Z,6.95
2023-04-18T03:39:25.435Z,6.93
2023-04-18T03:41:27.045Z,6.91
2023-04-18T03:43:28.546Z,6.91
2023-04-18T03:45:30.350Z,6.90
2023-04-18T03:47:32.116Z,6.88
2023-04-18T03:49:33.626Z,6.87
2023-04-18T03:51:43.822Z,6.87
2023-04-18T03:53:45.342Z,6.85
2023-04-18T03:55:46.887Z,6.83
2023-04-18T03:57:48.371Z,6.84
2023-04-18T03:59:49.950Z,6.84
2023-04-18T04:01:51.503Z,6.81
2023-04-18T04:03:53.468Z,6.81
2023-04-18T04:05:55.304Z,6.79
2023-04-18T04:07:56.858Z,6.80
2023-04-18T04:09:58.698Z,6.76
2023-04-18T04:12:00.158Z,6.73
2023-04-18T04:14:02.187Z,6.70
2023-04-18T04:16:04.706Z,6.70
2023-04-18T04:18:06.553Z,6.69
2023-04-18T04:20:08.517Z,6.69
2023-04-18T04:22:10.082Z,6.70
2023-04-18T04:24:11.850Z,6.69
2023-04-18T04:26:15.110Z,6.68
2023-04-18T04:28:16.867Z,6.66
2023-04-18T04:30:18.329Z,6.66
2023-04-18T04:32:22.610Z,6.67
2023-04-18T04:34:24.133Z,6.68
2023-04-18T04:36:27.189Z,6.68
2023-04-18T04:38:30.854Z,6.68
2023-04-18T04:40:32.531Z,6.68
2023-04-18T04:42:34.640Z,6.68
2023-04-18T04:44:37.450Z,6.68
2023-04-18T04:46:40.305Z,6.68
2023-04-18T04:48:42.418Z,6.66
2023-04-18T04:50:51.950Z,6.67
2023-04-18T04:52:53.429Z,6.65
2023-04-18T04:54:54.900Z,6.65
2023-04-18T04:56:56.541Z,6.67
2023-04-18T04:58:58.226Z,6.67
2023-04-18T05:00:59.771Z,6.68
2023-04-18T05:03:02.218Z,6.68
2023-04-18T05:05:04.090Z,6.71
2023-04-18T05:07:05.805Z,6.72
2023-04-18T05:09:07.305Z,6.72
2023-04-18T05:11:08.790Z,6.75
2023-04-18T05:13:10.338Z,6.77
2023-04-18T05:15:12.643Z,6.78
2023-04-18T05:17:14.139Z,6.77
2023-04-18T05:19:15.744Z,6.80
2023-04-18T05:21:17.248Z,6.81
2023-04-18T05:23:18.717Z,6.83
2023-04-18T05:25:20.420Z,6.85
2023-04-18T05:27:21.993Z,6.86
2023-04-18T05:29:23.471Z,6.88
2023-04-18T05:31:25.841Z,6.89
2023-04-18T05:33:31.665Z,6.90
2023-04-18T05:35:33.165Z,6.89
2023-04-18T05:37:34.683Z,6.93
2023-04-18T05:39:36.246Z,6.93
2023-04-18T05:41:37.700Z,6.95
2023-04-18T05:43:39.178Z,7.00
2023-04-18T05:45:40.782Z,7.01
2023-04-18T05:47:42.270Z,6.99
2023-04-18T05:49:43.918Z,7.00
2023-04-18T05:51:46.225Z,7.02
2023-04-18T05:53:47.788Z,7.03
2023-04-18T05:55:50.134Z,7.02
2023-04-18T05:57:51.679Z,7.07
2023-04-18T05:59:53.170Z,7.11
2023-04-18T06:01:54.910Z,7.15
2023-04-18T06:03:56.724Z,7.16
2023-04-18T06:05:58.575Z,7.17
2023-04-18T06:08:00.147Z,7.15
2023-04-18T06:10:01.745Z,7.14
2023-04-18T06:12:03.622Z,7.17
2023-04-18T06:14:05.075Z,7.20
2023-04-18T06:16:06.818Z,7.24
2023-04-18T06:18:08.372Z,7.31
2023-04-18T06:20:10.682Z,7.38
2023-04-18T06:22:12.171Z,7.44
2023-04-18T06:24:13.874Z,7.48
2023-04-18T06:26:15.937Z,7.52
2023-04-18T06:28:17.452Z,7.53
2023-04-18T06:30:21.896Z,7.54
2023-04-18T06:32:23.507Z,7.60
2023-04-18T06:34:25.431Z,7.61
2023-04-18T06:36:27.509Z,7.68
2023-04-18T06:38:29.085Z,7.72
2023-04-18T06:40:30.646Z,7.76
2023-04-18T06:42:32.163Z,7.82
2023-04-18T06:44:33.712Z,7.86
2023-04-18T06:46:35.322Z,7.91
2023-04-18T06:48:36.859Z,7.92
2023-04-18T06:50:38.361Z,7.91
2023-04-18T06:52:44.291Z,7.94
2023-04-18T06:54:45.844Z,7.92
2023-04-18T06:56:47.580Z,7.91
2023-04-18T06:58:49.646Z,7.91
2023-04-18T07:00:52.048Z,7.93
2023-04-18T07:02:53.918Z,7.97
2023-04-18T07:04:55.494Z,7.98
2023-04-18T07:06:56.989Z,7.95
2023-04-18T07:09:01.309Z,7.94
2023-04-18T07:11:03.003Z,7.96
2023-04-18T07:13:04.819Z,7.99
2023-04-18T07:15:06.835Z,8.04
2023-04-18T07:17:08.374Z,8.07
2023-04-18T07:19:09.942Z,8.12
2023-04-18T07:21:11.512Z,8.12
2023-04-18T07:29:02.713Z,8.19
2023-04-18T07:31:04.589Z,8.23
2023-04-18T07:33:06.456Z,8.26
2023-04-18T07:35:08.418Z,8.29
2023-04-18T07:37:09.880Z,8.34
2023-04-18T07:39:11.396Z,8.40
2023-04-18T07:41:13.187Z,8.43
2023-04-18T07:43:15.021Z,8.52
2023-04-18T07:45:16.575Z,8.59
2023-04-18T07:47:22.293Z,8.65
2023-04-18T07:49:24.079Z,8.68
2023-04-18T07:51:31.181Z,8.70
2023-04-18T07:53:33.853Z,8.71
2023-04-18T07:55:35.418Z,8.75
2023-04-18T07:57:36.907Z,8.82
2023-04-18T07:59:38.382Z,8.90
2023-04-18T08:01:39.870Z,8.98
2023-04-18T08:03:41.791Z,9.03
2023-04-18T08:05:43.513Z,9.09
2023-04-18T08:07:45.097Z,9.16
2023-04-18T08:09:46.707Z,9.19
2023-04-18T08:11:48.256Z,9.26
2023-04-18T08:13:49.764Z,9.34
2023-04-18T08:15:51.281Z,9.36
2023-04-18T08:17:53.892Z,9.35
2023-04-18T08:19:55.398Z,9.39
2023-04-18T08:22:08.192Z,9.42
2023-04-18T08:24:09.726Z,9.44
2023-04-18T08:26:11.248Z,9.45
2023-04-18T08:28:13.803Z,9.51
2023-04-18T08:30:15.622Z,9.52
2023-04-18T08:32:17.110Z,9.61
2023-04-18T08:34:18.700Z,9.64
2023-04-18T08:36:21.207Z,9.66
2023-04-18T08:38:22.734Z,9.75
2023-04-18T08:40:24.565Z,9.80
2023-04-18T08:42:26.820Z,9.84
2023-04-18T08:44:29.083Z,9.86
2023-04-18T08:46:35.808Z,9.93
2023-04-18T08:48:37.358Z,10.02
2023-04-18T08:50:38.947Z,10.07
2023-04-18T08:52:47.410Z,10.14
2023-04-18T08:54:50.146Z,10.20
2023-04-18T08:57:09.962Z,10.27
2023-04-18T08:59:11.612Z,10.34
2023-04-18T09:01:15.087Z,10.35
2023-04-18T09:03:16.809Z,10.37
2023-04-18T09:05:19.784Z,10.42
2023-04-18T09:07:31.117Z,10.54
2023-04-18T09:09:46.911Z,10.59
2023-04-18T09:11:48.414Z,10.60
2023-04-18T09:13:50.467Z,10.59
2023-04-18T09:15:56.128Z,10.60
2023-04-18T09:18:00.236Z,10.54
2023-04-18T09:20:05.279Z,10.56
2023-04-18T09:22:08.270Z,10.65
2023-04-18T09:24:22.541Z,10.75
2023-04-18T09:26:34.810Z,10.78
2023-04-18T09:28:37.410Z,10.87
2023-04-18T09:30:41.103Z,10.95
2023-04-18T09:32:45.036Z,11.06
2023-04-18T09:34:47.221Z,11.19
2023-04-18T09:37:05.898Z,11.33
2023-04-18T09:39:07.335Z,11.43
2023-04-18T10:09:34.534Z,11.31
2023-04-18T10:11:36.627Z,11.48
2023-04-18T10:13:41.652Z,11.64
2023-04-18T10:15:44.291Z,11.80
2023-04-18T10:18:04.297Z,11.94
2023-04-18T10:20:08.399Z,12.13
2023-04-18T10:22:11.607Z,12.32
2023-04-18T10:24:45.093Z,12.53
2023-04-18T10:26:47.301Z,12.66
2023-04-18T10:28:51.146Z,12.73
2023-04-18T10:30:56.184Z,12.88
2023-04-18T10:32:57.760Z,13.07
2023-04-18T10:35:00.181Z,13.25
2023-04-18T10:37:05.419Z,13.42
2023-04-18T10:39:25.531Z,13.64
2023-04-18T10:41:29.548Z,13.81
2023-04-18T10:43:31.023Z,13.63
2023-04-18T10:45:36.448Z,13.44
2023-04-18T10:47:38.123Z,13.49
2023-04-18T10:49:39.671Z,13.60
2023-04-18T10:51:41.492Z,13.86
2023-04-18T10:53:56.352Z,14.21
2023-04-18T10:55:57.925Z,14.48
2023-04-18T10:57:59.584Z,14.75
2023-04-18T11:00:01.583Z,15.11
2023-04-18T11:02:23.234Z,15.08
2023-04-18T11:04:25.708Z,15.18
2023-04-18T11:06:27.765Z,15.24
2023-04-18T11:08:30.145Z,15.44
2023-04-18T11:10:31.762Z,15.26
2023-04-18T11:12:36.423Z,14.76
2023-04-18T11:14:46.130Z,14.55
2023-04-18T11:16:47.641Z,15.08
2023-04-18T11:18:49.123Z,15.58
2023-04-18T11:20:51.640Z,15.62
2023-04-18T11:22:54.541Z,15.25
2023-04-18T11:25:07.134Z,15.11
2023-04-18T11:27:10.423Z,14.96
2023-04-18T11:29:11.874Z,14.58
2023-04-18T11:31:16.140Z,14.26
2023-04-18T11:33:17.705Z,14.30
2023-04-18T11:35:19.227Z,14.95
2023-04-18T11:37:21.044Z,15.47
2023-04-18T11:39:22.790Z,16.01
2023-04-18T11:41:24.360Z,16.22
2023-04-18T11:43:25.983Z,16.43
2023-04-18T11:45:27.588Z,16.48
2023-04-18T11:47:31.733Z,16.27
2023-04-18T11:49:33.338Z,16.20
2023-04-18T11:51:35.958Z,16.27
2023-04-18T11:53:38.891Z,16.24
2023-04-18T11:55:40.498Z,16.13
2023-04-18T11:57:42.199Z,16.01
2023-04-18T12:00:00.828Z,15.99
2023-04-18T12:02:15.487Z,15.92
2023-04-18T12:04:19.100Z,15.75
2023-04-18T12:06:21.013Z,15.61
2023-04-18T12:08:22.538Z,15.73
2023-04-18T12:10:26.171Z,16.22
2023-04-18T12:12:27.960Z,16.60
2023-04-18T12:14:30.400Z,17.00
2023-04-18T12:16:33.438Z,17.08
2023-04-18T12:18:35.069Z,17.20
2023-04-18T12:20:38.067Z,17.00
2023-04-18T12:22:50.160Z,16.93
2023-04-18T12:25:20.098Z,16.71
2023-04-18T12:27:21.658Z,16.49
2023-04-18T12:29:23.836Z,16.40
2023-04-18T12:31:25.700Z,16.22
2023-04-18T12:33:27.550Z,16.17
2023-04-18T12:35:30.769Z,16.08
2023-04-18T12:37:32.309Z,15.90
2023-04-18T12:39:33.765Z,15.56
2023-04-18T12:41:35.286Z,15.52
2023-04-18T12:43:36.780Z,15.90
2023-04-18T12:45:38.344Z,16.31
2023-04-18T12:47:41.467Z,16.53
2023-04-18T12:49:42.944Z,16.44
2023-04-18T12:51:44.639Z,16.29
2023-04-18T12:53:46.120Z,16.15
2023-04-18T12:55:47.616Z,16.04
2023-04-18T12:57:51.705Z,16.03
2023-04-18T12:59:53.222Z,16.16
2023-04-18T13:01:55.042Z,16.40
2023-04-18T13:04:08.374Z,16.41
2023-04-18T13:06:13.738Z,16.28
2023-04-18T13:08:17.804Z,16.11
2023-04-18T13:10:21.904Z,15.98
2023-04-18T13:12:23.345Z,15.89
2023-04-18T13:14:24.874Z,16.04
2023-04-18T13:16:26.386Z,15.93
2023-04-18T13:18:27.858Z,15.81
2023-04-18T13:20:29.311Z,15.99
2023-04-18T13:22:31.541Z,16.00
2023-04-18T13:24:33.089Z,15.78
2023-04-18T13:26:36.061Z,15.60
2023-04-18T13:28:37.660Z,15.47
2023-04-18T13:30:39.328Z,15.61
2023-04-18T13:32:41.222Z,15.90
2023-04-18T13:34:46.580Z,16.19
2023-04-18T13:36:48.052Z,16.42
2023-04-18T13:38:51.181Z,16.60
2023-04-18T13:41:04.352Z,16.81
2023-04-18T13:43:13.141Z,16.90
2023-04-18T13:45:14.624Z,17.01
2023-04-18T13:47:16.289Z,17.12
2023-04-18T13:49:17.823Z,17.14
2023-04-18T13:51:19.312Z,17.24
2023-04-18T13:53:21.220Z,17.17
2023-04-18T13:55:22.809Z,16.92
2023-04-18T13:57:24.288Z,16.88
2023-04-18T14:36:28.870Z,15.69
2023-04-18T14:38:30.882Z,15.65
2023-04-18T14:40:33.158Z,15.70
2023-04-18T14:42:34.733Z,15.63
2023-04-18T14:44:36.220Z,15.52
2023-04-18T14:46:37.738Z,15.41
2023-04-18T14:48:39.213Z,15.37
2023-04-18T14:50:40.809Z,15.48
2023-04-18T14:52:42.579Z,15.43
2023-04-18T14:54:44.039Z,15.45
2023-04-18T14:56:45.674Z,15.60
2023-04-18T14:58:47.233Z,15.76
2023-04-18T15:00:49.227Z,15.82
2023-04-18T15:02:50.851Z,15.81
2023-04-18T15:04:53.398Z,15.70
2023-04-18T15:06:54.944Z,15.61
2023-04-18T15:08:56.680Z,15.53
2023-04-18T15:10:58.170Z,15.48
2023-04-18T15:12:59.656Z,15.52
2023-04-18T15:15:01.163Z,15.57
2023-04-18T15:17:05.540Z,15.54
2023-04-18T15:19:07.037Z,15.42
2023-04-18T15:21:08.628Z,15.39
2023-04-18T15:23:13.631Z,15.26
2023-04-18T15:25:18.199Z,15.23
2023-04-18T15:27:19.748Z,15.32
2023-04-18T15:29:21.222Z,15.46
2023-04-18T15:31:23.350Z,15.42
2023-04-18T15:33:25.231Z,15.44
2023-04-18T15:35:26.741Z,15.57
2023-04-18T15:37:28.310Z,15.64
2023-04-18T15:39:29.875Z,15.73
2023-04-18T15:41:34.300Z,15.85
2023-04-18T15:43:35.876Z,15.90
2023-04-18T15:45:37.407Z,15.97
2023-04-18T15:47:39.011Z,15.98
2023-04-18T15:49:40.518Z,15.91
2023-04-18T15:51:41.994Z,15.89
2023-04-18T15:53:43.592Z,15.86
2023-04-18T15:55:46.902Z,15.89
2023-04-18T15:57:48.356Z,15.89
2023-04-18T15:59:49.830Z,15.85
2023-04-18T16:01:51.541Z,15.78
2023-04-18T16:03:53.137Z,15.63
2023-04-18T16:05:54.658Z,15.50
2023-04-18T16:07:56.341Z,15.33
2023-04-18T16:09:57.868Z,15.18
2023-04-18T16:11:59.341Z,15.11
2023-04-18T16:14:00.903Z,15.06
2023-04-18T16:16:06.324Z,14.94
2023-04-18T16:18:08.553Z,14.82
2023-04-18T16:20:10.795Z,14.72
2023-04-18T16:22:12.440Z,14.67
2023-04-18T16:24:15.878Z,14.64
2023-04-18T16:26:17.540Z,14.61
2023-04-18T16:28:18.988Z,14.60
2023-04-18T16:30:20.938Z,14.67
2023-04-18T16:32:22.431Z,14.83
2023-04-18T16:34:24.030Z,14.92
2023-04-18T16:36:26.028Z,14.89
2023-04-18T16:38:27.560Z,14.86
2023-04-18T16:40:30.694Z,14.87
2023-04-18T16:42:32.460Z,14.90
2023-04-18T16:44:33.966Z,14.95
2023-04-18T16:46:35.638Z,14.90
2023-04-18T16:48:38.660Z,14.78
2023-04-18T16:50:40.205Z,14.69
2023-04-18T16:52:41.859Z,14.58
2023-04-18T16:54:44.443Z,14.53
2023-04-18T16:56:45.941Z,14.49
2023-04-18T16:58:47.442Z,14.42
2023-04-18T17:00:49.181Z,14.39
2023-04-18T17:02:50.859Z,14.32
2023-04-18T17:04:52.495Z,14.27
2023-04-18T17:06:54.104Z,14.20
2023-04-18T17:08:55.750Z,14.15
2023-04-18T17:10:57.378Z,14.08
2023-04-18T17:12:59.173Z,14.05
2023-04-18T17:15:00.603Z,14.05
2023-04-18T17:17:02.080Z,14.00
2023-04-18T17:19:03.585Z,14.04
2023-04-18T17:21:05.138Z,14.03
2023-04-18T17:23:06.657Z,14.02
2023-04-18T17:25:08.536Z,13.94
2023-04-18T17:27:09.990Z,13.97
2023-04-18T17:29:11.481Z,13.99
2023-04-18T17:31:16.233Z,13.95
2023-04-18T17:33:17.767Z,13.87
2023-04-18T17:35:19.556Z,13.74
2023-04-18T17:37:22.366Z,13.68
2023-04-18T17:39:23.912Z,13.61
2023-04-18T17:41:25.688Z,13.53
2023-04-18T17:43:27.673Z,13.47
2023-04-18T17:45:29.231Z,13.38
2023-04-18T17:47:32.594Z,13.30
2023-04-18T17:49:36.684Z,13.29
2023-04-18T17:51:38.160Z,13.18
2023-04-18T17:53:39.605Z,13.16
2023-04-18T17:55:41.129Z,13.16
2023-04-18T17:57:42.648Z,13.09
2023-04-18T17:59:44.150Z,13.05
2023-04-18T18:01:46.100Z,13.03
2023-04-18T18:03:48.759Z,12.97
2023-04-18T18:05:50.722Z,12.92
2023-04-18T18:07:53.351Z,12.88
2023-04-18T18:09:55.269Z,12.89
2023-04-18T18:11:57.017Z,12.86
2023-04-18T18:13:59.221Z,12.81
2023-04-18T18:16:02.011Z,12.78
2023-04-18T18:18:03.567Z,12.75
2023-04-18T18:20:13.324Z,12.73
2023-04-18T18:22:15.711Z,12.67
2023-04-18T18:24:18.641Z,12.63
2023-04-18T18:26:20.222Z,12.61
2023-04-18T18:28:21.713Z,12.52
2023-04-18T18:30:23.254Z,12.49
2023-04-18T18:32:26.734Z,12.48
2023-04-18T18:34:29.811Z,12.44
2023-04-18T18:36:31.504Z,12.44
2023-04-18T18:38:32.948Z,12.42
2023-04-18T18:40:34.416Z,12.40
2023-04-18T18:42:36.712Z,12.36
2023-04-18T18:44:38.186Z,12.32
2023-04-18T18:46:40.618Z,12.29
2023-04-18T18:48:43.106Z,12.32
2023-04-18T18:50:44.556Z,12.28
2023-04-18T18:52:46.142Z,12.24
2023-04-18T18:54:47.583Z,12.25
2023-04-18T18:56:49.079Z,12.19
2023-04-18T18:58:53.305Z,12.20
2023-04-18T19:00:56.151Z,12.17
2023-04-18T19:02:57.816Z,12.19
2023-04-18T19:04:59.465Z,12.17
2023-04-18T19:07:01.033Z,12.16
2023-04-18T19:09:02.614Z,12.17
2023-04-18T19:11:04.382Z,12.15
2023-04-18T19:13:05.894Z,12.11
2023-04-18T19:15:08.051Z,12.10
2023-04-18T19:17:09.752Z,12.05
2023-04-18T19:19:11.433Z,12.03
2023-04-18T19:21:13.671Z,12.00
2023-04-18T19:23:16.859Z,11.95
2023-04-18T19:25:18.446Z,11.94
2023-04-18T19:27:19.978Z,11.92
2023-04-18T19:29:22.403Z,11.87
2023-04-18T19:31:23.953Z,11.86
2023-04-18T19:33:25.631Z,11.83
2023-04-18T19:35:27.754Z,11.80
2023-04-18T19:37:29.545Z,11.78
2023-04-18T19:39:31.138Z,11.75
2023-04-18T19:41:32.601Z,11.73
2023-04-18T19:43:34.671Z,11.71
2023-04-18T19:45:36.414Z,11.70
2023-04-18T19:47:38.298Z,11.67
2023-04-18T19:49:39.760Z,11.63
2023-04-18T19:51:41.262Z,11.61
2023-04-18T19:53:42.814Z,11.59
2023-04-18T19:55:45.182Z,11.58
2023-04-18T19:57:47.818Z,11.56
2023-04-18T19:59:49.269Z,11.53
2023-04-18T20:01:50.776Z,11.51
2023-04-18T20:03:52.544Z,11.52
2023-04-18T20:05:54.289Z,11.46
2023-04-18T20:07:55.799Z,11.44
2023-04-18T20:09:57.298Z,11.40
2023-04-18T20:12:00.497Z,11.35
2023-04-18T20:14:02.199Z,11.30
2023-04-18T20:16:08.792Z,11.30
2023-04-18T20:18:10.704Z,11.26
2023-04-18T20:20:13.051Z,11.27
2023-04-18T20:22:14.978Z,11.22
2023-04-18T20:24:16.506Z,11.17
2023-04-18T20:26:18.039Z,11.13
2023-04-18T20:28:19.500Z,11.11
2023-04-18T20:30:22.019Z,11.07
2023-04-18T20:32:23.483Z,11.06
2023-04-18T20:34:25.010Z,11.03
2023-04-18T20:36:26.542Z,10.99
2023-04-18T20:38:29.678Z,10.93
2023-04-18T20:40:33.232Z,10.93
2023-04-18T20:42:34.789Z,10.88
2023-04-18T20:44:36.615Z,10.84
2023-04-18T20:46:38.191Z,10.84
2023-04-18T20:48:40.075Z,10.82
2023-04-18T20:50:43.859Z,10.78
2023-04-18T20:52:45.349Z,10.75
2023-04-18T20:54:46.787Z,10.70
2023-04-18T20:56:48.281Z,10.67
2023-04-18T20:58:49.730Z,10.63
2023-04-18T21:00:52.079Z,10.63
2023-04-18T21:02:53.638Z,10.58
2023-04-18T21:04:55.213Z,10.55
2023-04-18T21:06:56.736Z,10.51
2023-04-18T21:08:58.234Z,10.48
2023-04-18T21:10:59.688Z,10.47
2023-04-18T21:13:01.176Z,10.43
2023-04-18T21:15:02.737Z,10.37
2023-04-18T21:17:04.201Z,10.33
2023-04-18T21:19:06.854Z,10.29
2023-04-18T21:21:08.927Z,10.26
2023-04-18T21:23:10.366Z,10.19
2023-04-18T21:25:11.903Z,10.17
2023-04-18T21:27:13.452Z,10.14
2023-04-18T21:29:14.914Z,10.14
2023-04-18T21:31:16.451Z,10.05
2023-04-18T21:33:19.231Z,10.03
2023-04-18T21:35:22.011Z,9.99
2023-04-18T21:37:25.727Z,9.98
2023-04-18T21:39:27.666Z,9.97
2023-04-18T21:41:29.390Z,9.94
2023-04-18T21:43:30.847Z,9.86
2023-04-18T21:45:33.673Z,9.84
2023-04-18T21:47:35.215Z,9.79
2023-04-18T21:49:36.693Z,9.80
2023-04-18T21:51:38.147Z,9.82
2023-04-18T21:53:40.491Z,9.79
2023-04-18T21:55:41.949Z,9.73
2023-04-18T21:57:43.602Z,9.77
2023-04-18T21:59:45.085Z,9.75
2023-04-18T22:01:46.564Z,9.76
2023-04-18T22:03:48.181Z,9.74
2023-04-18T22:05:52.240Z,9.75
2023-04-18T22:07:58.111Z,9.73
2023-04-18T22:10:00.276Z,9.74
2023-04-18T22:12:03.579Z,9.73
2023-04-18T22:14:05.189Z,9.74
2023-04-18T22:16:08.200Z,9.74
2023-04-18T22:18:09.841Z,9.72
2023-04-18T22:20:11.787Z,9.73
2023-04-18T22:22:13.283Z,9.71
2023-04-18T22:24:14.937Z,9.70
2023-04-18T22:26:16.610Z,9.69
2023-04-18T22:28:18.083Z,9.67
2023-04-18T22:30:19.610Z,9.66
2023-04-18T22:32:21.144Z,9.65
2023-04-18T22:34:22.642Z,9.63
2023-04-18T22:36:24.932Z,9.59
2023-04-18T22:38:26.441Z,9.59
2023-04-18T22:40:27.929Z,9.57
2023-04-18T22:42:30.054Z,9.53
2023-04-18T22:44:31.661Z,9.52
2023-04-18T22:46:33.217Z,9.49
2023-04-18T22:48:35.180Z,9.48
2023-04-18T22:50:37.851Z,9.45
2023-04-18T22:52:39.411Z,9.41
2023-04-18T22:54:41.048Z,9.39
2023-04-18T22:56:42.597Z,9.36
2023-04-18T22:58:44.052Z,9.33
2023-04-18T23:00:45.564Z,9.29
2023-04-18T23:02:47.069Z,9.27
2023-04-18T23:04:49.301Z,9.25
2023-04-18T23:06:50.861Z,9.22
2023-04-18T23:08:52.359Z,9.18
2023-04-18T23:10:53.907Z,9.17
2023-04-18T23:12:55.581Z,9.11
2023-04-18T23:14:57.228Z,9.10
2023-04-18T23:16:58.693Z,9.07
2023-04-18T23:19:00.402Z,9.04
2023-04-18T23:21:01.920Z,9.00
2023-04-18T23:23:03.560Z,8.99
2023-04-18T23:25:05.610Z,8.95
2023-04-18T23:27:07.150Z,8.94
2023-04-18T23:29:08.594Z,8.88
2023-04-18T23:31:10.181Z,8.88
2023-04-18T23:33:11.647Z,8.84
2023-04-18T23:35:13.094Z,8.81
2023-04-18T23:37:14.567Z,8.76
2023-04-18T23:39:18.500Z,8.73
2023-04-18T23:41:20.027Z,8.72
2023-04-18T23:43:21.664Z,8.70
2023-04-18T23:45:24.384Z,8.66
2023-04-18T23:47:26.041Z,8.66
2023-04-18T23:49:28.419Z,8.64
2023-04-18T23:51:29.933Z,8.64
2023-04-18T23:53:31.401Z,8.60
2023-04-18T23:55:32.853Z,8.56
2023-04-18T23:57:34.387Z,8.53
2023-04-18T23:59:36.090Z,8.53
